sensor_id;sensor_type;location;lat;lon;timestamp;temperature;humidity
11152;DHT22;5630;49.342;10.802;2022-12-29T00:02:09;6.70;99.90
11152;DHT22;5630;49.342;10.802;2022-12-29T00:04:35;6.80;99.90
11152;DHT22;5630;49.342;10.802;2022-12-29T00:07:01;6.80;99.90
11152;DHT22;5630;49.342;10.802;2022-12-29T00:09:26;6.80;99.90
11152;DHT22;5630;49.342;10.802;2022-12-29T00:11:52;6.80;99.90
11152;DHT22;5630;49.342;10.802;2022-12-29T00:14:19;6.90;99.90
11152;DHT22;5630;49.342;10.802;2022-12-29T00:17:03;6.90;99.90
11152;DHT22;5630;49.342;10.802;2022-12-29T00:19:28;6.90;99.90
11152;DHT22;5630;49.342;10.802;2022-12-29T00:22:14;6.90;99.90
11152;DHT22;5630;49.342;10.802;2022-12-29T00:24:58;6.90;99.90
11152;DHT22;5630;49.342;10.802;2022-12-29T00:27:28;7.00;99.90
11152;DHT22;5630;49.342;10.802;2022-12-29T00:30:17;7.00;99.90
11152;DHT22;5630;49.342;10.802;2022-12-29T00:35:56;7.00;99.90
11152;DHT22;5630;49.342;10.802;2022-12-29T00:38:23;7.00;99.90
11152;DHT22;5630;49.342;10.802;2022-12-29T00:41:07;7.00;99.90
11152;DHT22;5630;49.342;10.802;2022-12-29T00:43:51;7.10;99.90
11152;DHT22;5630;49.342;10.802;2022-12-29T00:46:36;7.10;99.90
11152;DHT22;5630;49.342;10.802;2022-12-29T00:49:04;7.10;99.90
11152;DHT22;5630;49.342;10.802;2022-12-29T00:51:49;7.10;99.90
11152;DHT22;5630;49.342;10.802;2022-12-29T00:54:15;7.10;99.90
11152;DHT22;5630;49.342;10.802;2022-12-29T00:56:41;7.10;99.90
11152;DHT22;5630;49.342;10.802;2022-12-29T00:59:09;7.20;99.90
11152;DHT22;5630;49.342;10.802;2022-12-29T01:01:35;7.20;99.90
11152;DHT22;5630;49.342;10.802;2022-12-29T01:04:01;7.20;99.90
11152;DHT22;5630;49.342;10.802;2022-12-29T01:06:27;7.20;99.90
11152;DHT22;5630;49.342;10.802;2022-12-29T01:08:52;7.10;99.90
11152;DHT22;5630;49.342;10.802;2022-12-29T01:11:37;7.20;99.90
11152;DHT22;5630;49.342;10.802;2022-12-29T01:14:04;7.30;99.90
11152;DHT22;5630;49.342;10.802;2022-12-29T01:16:29;7.30;99.90
11152;DHT22;5630;49.342;10.802;2022-12-29T01:18:55;7.30;99.90
11152;DHT22;5630;49.342;10.802;2022-12-29T01:21:21;7.30;99.90
11152;DHT22;5630;49.342;10.802;2022-12-29T01:23:46;7.40;99.90
11152;DHT22;5630;49.342;10.802;2022-12-29T01:26:14;7.40;99.90
11152;DHT22;5630;49.342;10.802;2022-12-29T01:28:40;7.40;99.90
11152;DHT22;5630;49.342;10.802;2022-12-29T01:31:10;7.40;99.90
11152;DHT22;5630;49.342;10.802;2022-12-29T01:33:36;7.50;99.90
11152;DHT22;5630;49.342;10.802;2022-12-29T01:36:08;7.60;99.90
11152;DHT22;5630;49.342;10.802;2022-12-29T01:38:35;7.50;99.90
11152;DHT22;5630;49.342;10.802;2022-12-29T01:41:01;7.60;99.90
11152;DHT22;5630;49.342;10.802;2022-12-29T01:43:46;7.50;99.90
11152;DHT22;5630;49.342;10.802;2022-12-29T01:48:48;7.60;99.90
11152;DHT22;5630;49.342;10.802;2022-12-29T01:51:15;7.60;99.90
11152;DHT22;5630;49.342;10.802;2022-12-29T01:53:42;7.60;99.90
11152;DHT22;5630;49.342;10.802;2022-12-29T01:56:12;7.60;99.90
11152;DHT22;5630;49.342;10.802;2022-12-29T01:58:41;7.60;99.90
11152;DHT22;5630;49.342;10.802;2022-12-29T02:01:08;7.60;99.90
11152;DHT22;5630;49.342;10.802;2022-12-29T02:03:34;7.60;99.90
11152;DHT22;5630;49.342;10.802;2022-12-29T02:06:19;7.60;99.90
11152;DHT22;5630;49.342;10.802;2022-12-29T02:08:47;7.60;99.90
11152;DHT22;5630;49.342;10.802;2022-12-29T02:11:15;7.60;99.90
11152;DHT22;5630;49.342;10.802;2022-12-29T02:13:41;7.60;99.90
11152;DHT22;5630;49.342;10.802;2022-12-29T02:16:18;7.60;99.90
11152;DHT22;5630;49.342;10.802;2022-12-29T02:24:49;7.50;99.90
11152;DHT22;5630;49.342;10.802;2022-12-29T02:33:21;7.50;99.90
11152;DHT22;5630;49.342;10.802;2022-12-29T02:36:07;7.50;99.90
11152;DHT22;5630;49.342;10.802;2022-12-29T02:39:02;7.50;99.90
11152;DHT22;5630;49.342;10.802;2022-12-29T02:41:32;7.50;99.90
11152;DHT22;5630;49.342;10.802;2022-12-29T02:46:41;7.50;99.90
11152;DHT22;5630;49.342;10.802;2022-12-29T02:49:28;7.50;99.90
11152;DHT22;5630;49.342;10.802;2022-12-29T02:52:07;7.50;99.90
11152;DHT22;5630;49.342;10.802;2022-12-29T02:54:36;7.50;99.90
11152;DHT22;5630;49.342;10.802;2022-12-29T02:59:39;7.50;99.90
11152;DHT22;5630;49.342;10.802;2022-12-29T03:05:15;7.40;99.90
11152;DHT22;5630;49.342;10.802;2022-12-29T03:10:45;7.50;99.90
11152;DHT22;5630;49.342;10.802;2022-12-29T03:19:02;7.50;99.90
11152;DHT22;5630;49.342;10.802;2022-12-29T03:21:39;7.50;99.90
11152;DHT22;5630;49.342;10.802;2022-12-29T03:24:38;7.60;99.90
11152;DHT22;5630;49.342;10.802;2022-12-29T03:27:06;7.50;99.90
11152;DHT22;5630;49.342;10.802;2022-12-29T03:29:39;7.50;99.90
11152;DHT22;5630;49.342;10.802;2022-12-29T03:32:09;7.50;99.90
11152;DHT22;5630;49.342;10.802;2022-12-29T03:34:37;7.50;99.90
11152;DHT22;5630;49.342;10.802;2022-12-29T03:37:07;7.60;99.90
11152;DHT22;5630;49.342;10.802;2022-12-29T03:39:35;7.50;99.90
11152;DHT22;5630;49.342;10.802;2022-12-29T03:42:06;7.50;99.90
11152;DHT22;5630;49.342;10.802;2022-12-29T03:44:39;7.50;99.90
11152;DHT22;5630;49.342;10.802;2022-12-29T03:47:06;7.50;99.90
11152;DHT22;5630;49.342;10.802;2022-12-29T03:49:32;7.50;99.90
11152;DHT22;5630;49.342;10.802;2022-12-29T03:51:58;7.50;99.90
11152;DHT22;5630;49.342;10.802;2022-12-29T03:54:24;7.50;99.90
11152;DHT22;5630;49.342;10.802;2022-12-29T03:56:50;7.50;99.90
11152;DHT22;5630;49.342;10.802;2022-12-29T03:59:15;7.50;99.90
11152;DHT22;5630;49.342;10.802;2022-12-29T04:01:41;7.50;99.90
11152;DHT22;5630;49.342;10.802;2022-12-29T04:04:06;7.40;99.90
11152;DHT22;5630;49.342;10.802;2022-12-29T04:06:32;7.40;99.90
11152;DHT22;5630;49.342;10.802;2022-12-29T04:08:58;7.40;99.90
11152;DHT22;5630;49.342;10.802;2022-12-29T04:11:23;7.40;99.90
11152;DHT22;5630;49.342;10.802;2022-12-29T04:13:49;7.40;99.90
11152;DHT22;5630;49.342;10.802;2022-12-29T04:16:14;7.40;99.90
11152;DHT22;5630;49.342;10.802;2022-12-29T04:18:40;7.30;99.90
11152;DHT22;5630;49.342;10.802;2022-12-29T04:21:05;7.30;99.90
11152;DHT22;5630;49.342;10.802;2022-12-29T04:23:33;7.30;99.90
11152;DHT22;5630;49.342;10.802;2022-12-29T04:26:00;7.30;99.90
11152;DHT22;5630;49.342;10.802;2022-12-29T04:28:26;7.30;99.90
11152;DHT22;5630;49.342;10.802;2022-12-29T04:30:52;7.30;99.90
11152;DHT22;5630;49.342;10.802;2022-12-29T04:33:17;7.30;99.90
11152;DHT22;5630;49.342;10.802;2022-12-29T04:35:43;7.30;99.90
11152;DHT22;5630;49.342;10.802;2022-12-29T04:38:09;7.30;99.90
11152;DHT22;5630;49.342;10.802;2022-12-29T04:40:35;7.20;99.90
11152;DHT22;5630;49.342;10.802;2022-12-29T04:43:02;7.30;99.90
11152;DHT22;5630;49.342;10.802;2022-12-29T04:45:28;7.30;99.90
11152;DHT22;5630;49.342;10.802;2022-12-29T04:47:54;7.20;99.90
11152;DHT22;5630;49.342;10.802;2022-12-29T04:50:19;7.30;99.90
11152;DHT22;5630;49.342;10.802;2022-12-29T04:52:45;7.30;99.90
11152;DHT22;5630;49.342;10.802;2022-12-29T04:55:10;7.30;99.90
11152;DHT22;5630;49.342;10.802;2022-12-29T04:57:36;7.30;99.90
11152;DHT22;5630;49.342;10.802;2022-12-29T05:00:03;7.20;99.90
11152;DHT22;5630;49.342;10.802;2022-12-29T05:02:28;7.30;99.90
11152;DHT22;5630;49.342;10.802;2022-12-29T05:04:54;7.20;99.90
11152;DHT22;5630;49.342;10.802;2022-12-29T05:07:19;7.20;99.90
11152;DHT22;5630;49.342;10.802;2022-12-29T05:09:45;7.20;99.90
11152;DHT22;5630;49.342;10.802;2022-12-29T05:12:10;7.20;99.90
11152;DHT22;5630;49.342;10.802;2022-12-29T05:14:36;7.20;99.90
11152;DHT22;5630;49.342;10.802;2022-12-29T05:17:01;7.20;99.90
11152;DHT22;5630;49.342;10.802;2022-12-29T05:19:27;7.20;99.90
11152;DHT22;5630;49.342;10.802;2022-12-29T05:21:53;7.30;99.90
11152;DHT22;5630;49.342;10.802;2022-12-29T05:24:19;7.30;99.90
11152;DHT22;5630;49.342;10.802;2022-12-29T05:26:45;7.20;99.90
11152;DHT22;5630;49.342;10.802;2022-12-29T05:29:10;7.20;99.90
11152;DHT22;5630;49.342;10.802;2022-12-29T05:31:36;7.20;99.90
11152;DHT22;5630;49.342;10.802;2022-12-29T05:34:02;7.30;99.90
11152;DHT22;5630;49.342;10.802;2022-12-29T05:36:28;7.20;99.90
11152;DHT22;5630;49.342;10.802;2022-12-29T05:38:53;7.10;99.90
11152;DHT22;5630;49.342;10.802;2022-12-29T05:41:19;7.20;99.90
11152;DHT22;5630;49.342;10.802;2022-12-29T05:43:44;7.10;99.90
11152;DHT22;5630;49.342;10.802;2022-12-29T05:46:10;7.10;99.90
11152;DHT22;5630;49.342;10.802;2022-12-29T05:48:36;7.00;99.90
11152;DHT22;5630;49.342;10.802;2022-12-29T05:51:01;7.00;99.90
11152;DHT22;5630;49.342;10.802;2022-12-29T05:53:27;7.00;99.90
11152;DHT22;5630;49.342;10.802;2022-12-29T05:55:52;7.00;99.90
11152;DHT22;5630;49.342;10.802;2022-12-29T05:58:19;7.00;99.90
11152;DHT22;5630;49.342;10.802;2022-12-29T06:00:45;7.00;99.90
11152;DHT22;5630;49.342;10.802;2022-12-29T06:03:10;7.00;99.90
11152;DHT22;5630;49.342;10.802;2022-12-29T06:05:36;7.00;99.90
11152;DHT22;5630;49.342;10.802;2022-12-29T06:08:01;7.00;99.90
11152;DHT22;5630;49.342;10.802;2022-12-29T06:10:27;7.00;99.90
11152;DHT22;5630;49.342;10.802;2022-12-29T06:12:52;7.00;99.90
11152;DHT22;5630;49.342;10.802;2022-12-29T06:15:18;7.00;99.90
11152;DHT22;5630;49.342;10.802;2022-12-29T06:17:44;6.90;99.90
11152;DHT22;5630;49.342;10.802;2022-12-29T06:20:10;6.90;99.90
11152;DHT22;5630;49.342;10.802;2022-12-29T06:22:36;6.90;99.90
11152;DHT22;5630;49.342;10.802;2022-12-29T06:25:02;6.90;99.90
11152;DHT22;5630;49.342;10.802;2022-12-29T06:27:28;6.90;99.90
11152;DHT22;5630;49.342;10.802;2022-12-29T06:29:54;6.80;99.90
11152;DHT22;5630;49.342;10.802;2022-12-29T06:32:19;6.80;99.90
11152;DHT22;5630;49.342;10.802;2022-12-29T06:34:45;6.80;99.90
11152;DHT22;5630;49.342;10.802;2022-12-29T06:37:11;6.80;99.90
11152;DHT22;5630;49.342;10.802;2022-12-29T06:39:37;6.80;99.90
11152;DHT22;5630;49.342;10.802;2022-12-29T06:42:02;6.80;99.90
11152;DHT22;5630;49.342;10.802;2022-12-29T06:44:28;6.80;99.90
11152;DHT22;5630;49.342;10.802;2022-12-29T06:46:54;6.80;99.90
11152;DHT22;5630;49.342;10.802;2022-12-29T06:49:19;6.90;99.90
11152;DHT22;5630;49.342;10.802;2022-12-29T06:51:45;6.90;99.90
11152;DHT22;5630;49.342;10.802;2022-12-29T06:54:11;6.90;99.90
11152;DHT22;5630;49.342;10.802;2022-12-29T06:56:36;6.90;99.90
11152;DHT22;5630;49.342;10.802;2022-12-29T06:59:02;6.90;99.90
11152;DHT22;5630;49.342;10.802;2022-12-29T07:01:28;6.90;99.90
11152;DHT22;5630;49.342;10.802;2022-12-29T07:03:54;6.90;99.90
11152;DHT22;5630;49.342;10.802;2022-12-29T07:06:21;7.00;99.90
11152;DHT22;5630;49.342;10.802;2022-12-29T07:08:46;7.00;99.90
11152;DHT22;5630;49.342;10.802;2022-12-29T07:11:12;7.00;99.90
11152;DHT22;5630;49.342;10.802;2022-12-29T07:13:38;7.10;99.90
11152;DHT22;5630;49.342;10.802;2022-12-29T07:16:08;7.00;99.90
11152;DHT22;5630;49.342;10.802;2022-12-29T07:18:34;7.10;99.90
11152;DHT22;5630;49.342;10.802;2022-12-29T07:21:00;7.40;99.90
11152;DHT22;5630;49.342;10.802;2022-12-29T07:23:26;7.80;99.90
11152;DHT22;5630;49.342;10.802;2022-12-29T07:26:02;7.90;99.90
11152;DHT22;5630;49.342;10.802;2022-12-29T07:28:28;8.10;99.90
11152;DHT22;5630;49.342;10.802;2022-12-29T07:30:53;8.20;99.90
11152;DHT22;5630;49.342;10.802;2022-12-29T07:33:19;8.40;99.90
11152;DHT22;5630;49.342;10.802;2022-12-29T07:35:45;8.20;99.90
11152;DHT22;5630;49.342;10.802;2022-12-29T07:38:10;8.00;99.90
11152;DHT22;5630;49.342;10.802;2022-12-29T07:40:36;8.00;99.90
11152;DHT22;5630;49.342;10.802;2022-12-29T07:43:01;7.90;99.90
11152;DHT22;5630;49.342;10.802;2022-12-29T07:45:27;7.70;99.90
11152;DHT22;5630;49.342;10.802;2022-12-29T07:47:53;7.70;99.90
11152;DHT22;5630;49.342;10.802;2022-12-29T07:50:18;7.60;99.90
11152;DHT22;5630;49.342;10.802;2022-12-29T07:52:44;7.60;99.90
11152;DHT22;5630;49.342;10.802;2022-12-29T07:55:10;7.60;99.90
11152;DHT22;5630;49.342;10.802;2022-12-29T07:57:35;7.60;99.90
11152;DHT22;5630;49.342;10.802;2022-12-29T08:00:02;7.50;99.90
11152;DHT22;5630;49.342;10.802;2022-12-29T08:02:28;7.60;99.90
11152;DHT22;5630;49.342;10.802;2022-12-29T08:04:55;7.60;99.90
11152;DHT22;5630;49.342;10.802;2022-12-29T08:07:20;7.50;99.90
11152;DHT22;5630;49.342;10.802;2022-12-29T08:09:46;7.60;99.90
11152;DHT22;5630;49.342;10.802;2022-12-29T08:12:12;7.60;99.90
11152;DHT22;5630;49.342;10.802;2022-12-29T08:17:08;7.70;99.90
11152;DHT22;5630;49.342;10.802;2022-12-29T08:19:33;8.00;99.90
11152;DHT22;5630;49.342;10.802;2022-12-29T08:21:59;8.40;99.90
11152;DHT22;5630;49.342;10.802;2022-12-29T08:24:25;8.40;99.90
11152;DHT22;5630;49.342;10.802;2022-12-29T08:26:50;8.20;99.90
11152;DHT22;5630;49.342;10.802;2022-12-29T08:29:16;8.10;99.90
11152;DHT22;5630;49.342;10.802;2022-12-29T08:31:42;8.10;99.90
11152;DHT22;5630;49.342;10.802;2022-12-29T08:34:08;8.00;99.90
11152;DHT22;5630;49.342;10.802;2022-12-29T08:36:33;8.00;99.90
11152;DHT22;5630;49.342;10.802;2022-12-29T08:38:59;8.00;99.90
11152;DHT22;5630;49.342;10.802;2022-12-29T08:41:24;8.20;99.90
11152;DHT22;5630;49.342;10.802;2022-12-29T08:43:50;8.20;99.90
11152;DHT22;5630;49.342;10.802;2022-12-29T08:46:16;8.20;99.90
11152;DHT22;5630;49.342;10.802;2022-12-29T08:48:42;8.20;99.90
11152;DHT22;5630;49.342;10.802;2022-12-29T08:51:08;8.30;99.90
11152;DHT22;5630;49.342;10.802;2022-12-29T08:53:33;8.30;99.90
11152;DHT22;5630;49.342;10.802;2022-12-29T08:56:00;8.30;99.90
11152;DHT22;5630;49.342;10.802;2022-12-29T08:58:26;8.30;99.90
11152;DHT22;5630;49.342;10.802;2022-12-29T09:00:56;8.40;99.90
11152;DHT22;5630;49.342;10.802;2022-12-29T09:03:22;8.40;99.90
11152;DHT22;5630;49.342;10.802;2022-12-29T09:05:50;8.50;99.90
11152;DHT22;5630;49.342;10.802;2022-12-29T09:08:16;8.50;99.90
11152;DHT22;5630;49.342;10.802;2022-12-29T09:10:42;8.50;99.90
11152;DHT22;5630;49.342;10.802;2022-12-29T09:13:08;8.60;99.90
11152;DHT22;5630;49.342;10.802;2022-12-29T09:15:33;8.60;99.90
11152;DHT22;5630;49.342;10.802;2022-12-29T09:17:59;8.70;99.90
11152;DHT22;5630;49.342;10.802;2022-12-29T09:20:24;8.80;99.90
11152;DHT22;5630;49.342;10.802;2022-12-29T09:22:50;8.80;99.90
11152;DHT22;5630;49.342;10.802;2022-12-29T09:25:16;8.80;99.90
11152;DHT22;5630;49.342;10.802;2022-12-29T09:27:41;8.80;99.90
11152;DHT22;5630;49.342;10.802;2022-12-29T09:30:10;8.90;99.90
11152;DHT22;5630;49.342;10.802;2022-12-29T09:32:36;9.00;99.90
11152;DHT22;5630;49.342;10.802;2022-12-29T09:35:02;9.00;99.90
11152;DHT22;5630;49.342;10.802;2022-12-29T09:37:27;9.00;99.90
11152;DHT22;5630;49.342;10.802;2022-12-29T09:39:53;9.00;99.90
11152;DHT22;5630;49.342;10.802;2022-12-29T09:42:27;9.00;99.90
11152;DHT22;5630;49.342;10.802;2022-12-29T09:47:25;9.10;99.90
11152;DHT22;5630;49.342;10.802;2022-12-29T09:50:27;9.10;99.90
11152;DHT22;5630;49.342;10.802;2022-12-29T09:55:48;9.00;99.90
11152;DHT22;5630;49.342;10.802;2022-12-29T09:58:35;9.10;99.90
11152;DHT22;5630;49.342;10.802;2022-12-29T10:01:05;9.10;99.90
11152;DHT22;5630;49.342;10.802;2022-12-29T10:03:55;9.10;99.90
11152;DHT22;5630;49.342;10.802;2022-12-29T10:06:26;9.10;99.90
11152;DHT22;5630;49.342;10.802;2022-12-29T10:09:31;9.10;99.90
11152;DHT22;5630;49.342;10.802;2022-12-29T10:15:02;9.10;99.90
11152;DHT22;5630;49.342;10.802;2022-12-29T10:17:54;9.10;99.90
11152;DHT22;5630;49.342;10.802;2022-12-29T10:23:35;9.10;99.90
11152;DHT22;5630;49.342;10.802;2022-12-29T10:26:02;9.20;99.90
11152;DHT22;5630;49.342;10.802;2022-12-29T10:28:38;9.20;99.90
11152;DHT22;5630;49.342;10.802;2022-12-29T10:31:12;9.30;99.90
11152;DHT22;5630;49.342;10.802;2022-12-29T10:33:42;9.40;99.90
11152;DHT22;5630;49.342;10.802;2022-12-29T10:36:38;9.30;99.90
11152;DHT22;5630;49.342;10.802;2022-12-29T10:44:19;9.50;99.90
11152;DHT22;5630;49.342;10.802;2022-12-29T10:46:55;9.50;99.90
11152;DHT22;5630;49.342;10.802;2022-12-29T10:49:21;9.60;99.90
11152;DHT22;5630;49.342;10.802;2022-12-29T10:51:48;9.60;99.90
11152;DHT22;5630;49.342;10.802;2022-12-29T10:54:41;9.70;99.90
11152;DHT22;5630;49.342;10.802;2022-12-29T10:57:13;9.70;99.90
11152;DHT22;5630;49.342;10.802;2022-12-29T10:59:41;9.70;99.90
11152;DHT22;5630;49.342;10.802;2022-12-29T11:05:02;9.70;99.90
11152;DHT22;5630;49.342;10.802;2022-12-29T11:07:30;9.80;99.90
11152;DHT22;5630;49.342;10.802;2022-12-29T11:10:37;9.90;99.90
11152;DHT22;5630;49.342;10.802;2022-12-29T11:13:24;9.90;99.90
11152;DHT22;5630;49.342;10.802;2022-12-29T11:15:51;9.90;99.90
11152;DHT22;5630;49.342;10.802;2022-12-29T11:18:26;10.00;99.90
11152;DHT22;5630;49.342;10.802;2022-12-29T11:20:57;10.10;99.90
11152;DHT22;5630;49.342;10.802;2022-12-29T11:23:40;10.00;99.90
11152;DHT22;5630;49.342;10.802;2022-12-29T11:28:40;10.00;99.90
11152;DHT22;5630;49.342;10.802;2022-12-29T11:31:07;10.10;99.90
11152;DHT22;5630;49.342;10.802;2022-12-29T11:33:38;10.10;99.90
11152;DHT22;5630;49.342;10.802;2022-12-29T11:38:56;10.10;99.90
11152;DHT22;5630;49.342;10.802;2022-12-29T11:41:27;10.20;99.90
11152;DHT22;5630;49.342;10.802;2022-12-29T11:43:56;10.40;99.90
11152;DHT22;5630;49.342;10.802;2022-12-29T11:46:27;10.70;99.90
11152;DHT22;5630;49.342;10.802;2022-12-29T11:48:53;10.80;99.90
11152;DHT22;5630;49.342;10.802;2022-12-29T11:51:28;10.90;99.90
11152;DHT22;5630;49.342;10.802;2022-12-29T11:53:59;11.00;99.90
11152;DHT22;5630;49.342;10.802;2022-12-29T11:56:36;11.00;99.90
11152;DHT22;5630;49.342;10.802;2022-12-29T12:01:55;11.20;99.90
11152;DHT22;5630;49.342;10.802;2022-12-29T12:04:23;11.20;99.90
11152;DHT22;5630;49.342;10.802;2022-12-29T12:06:57;11.30;99.90
11152;DHT22;5630;49.342;10.802;2022-12-29T12:10:01;11.30;99.90
11152;DHT22;5630;49.342;10.802;2022-12-29T12:12:33;11.20;99.90
11152;DHT22;5630;49.342;10.802;2022-12-29T12:15:02;11.20;99.90
11152;DHT22;5630;49.342;10.802;2022-12-29T12:17:53;11.10;99.90
11152;DHT22;5630;49.342;10.802;2022-12-29T12:20:49;11.10;99.90
11152;DHT22;5630;49.342;10.802;2022-12-29T12:28:34;11.10;99.90
11152;DHT22;5630;49.342;10.802;2022-12-29T12:31:02;11.10;99.90
11152;DHT22;5630;49.342;10.802;2022-12-29T12:33:35;11.10;99.90
11152;DHT22;5630;49.342;10.802;2022-12-29T12:47:44;11.00;99.90
11152;DHT22;5630;49.342;10.802;2022-12-29T12:56:00;10.90;99.90
11152;DHT22;5630;49.342;10.802;2022-12-29T12:58:50;10.90;99.90
11152;DHT22;5630;49.342;10.802;2022-12-29T13:02:26;10.90;99.90
11152;DHT22;5630;49.342;10.802;2022-12-29T13:04:56;10.90;99.90
11152;DHT22;5630;49.342;10.802;2022-12-29T13:07:43;10.80;99.90
11152;DHT22;5630;49.342;10.802;2022-12-29T13:15:49;10.80;99.90
11152;DHT22;5630;49.342;10.802;2022-12-29T13:21:15;10.80;99.90
11152;DHT22;5630;49.342;10.802;2022-12-29T13:23:50;10.80;99.90
11152;DHT22;5630;49.342;10.802;2022-12-29T13:26:25;10.70;99.90
11152;DHT22;5630;49.342;10.802;2022-12-29T13:29:18;10.80;99.90
11152;DHT22;5630;49.342;10.802;2022-12-29T13:31:53;10.80;99.90
11152;DHT22;5630;49.342;10.802;2022-12-29T13:37:11;10.80;99.90
11152;DHT22;5630;49.342;10.802;2022-12-29T13:39:42;10.80;99.90
11152;DHT22;5630;49.342;10.802;2022-12-29T13:42:09;10.80;99.90
11152;DHT22;5630;49.342;10.802;2022-12-29T13:44:46;10.80;99.90
11152;DHT22;5630;49.342;10.802;2022-12-29T13:47:42;10.80;99.90
11152;DHT22;5630;49.342;10.802;2022-12-29T13:50:22;10.80;99.90
11152;DHT22;5630;49.342;10.802;2022-12-29T13:59:03;11.30;99.90
11152;DHT22;5630;49.342;10.802;2022-12-29T14:04:14;11.00;99.90
11152;DHT22;5630;49.342;10.802;2022-12-29T14:06:47;10.80;99.90
11152;DHT22;5630;49.342;10.802;2022-12-29T14:11:56;10.70;99.90
11152;DHT22;5630;49.342;10.802;2022-12-29T14:14:24;10.70;99.90
11152;DHT22;5630;49.342;10.802;2022-12-29T14:16:52;10.60;99.90
11152;DHT22;5630;49.342;10.802;2022-12-29T14:19:23;10.50;99.90
11152;DHT22;5630;49.342;10.802;2022-12-29T14:21:53;10.50;99.90
11152;DHT22;5630;49.342;10.802;2022-12-29T14:29:50;10.40;99.90
11152;DHT22;5630;49.342;10.802;2022-12-29T14:37:31;10.40;99.90
11152;DHT22;5630;49.342;10.802;2022-12-29T14:40:17;10.30;99.90
11152;DHT22;5630;49.342;10.802;2022-12-29T14:42:43;10.30;99.90
11152;DHT22;5630;49.342;10.802;2022-12-29T14:47:41;10.30;99.90
11152;DHT22;5630;49.342;10.802;2022-12-29T14:52:53;10.30;99.90
11152;DHT22;5630;49.342;10.802;2022-12-29T14:55:41;10.30;99.90
11152;DHT22;5630;49.342;10.802;2022-12-29T14:58:26;10.20;99.90
11152;DHT22;5630;49.342;10.802;2022-12-29T15:00:53;10.20;99.90
11152;DHT22;5630;49.342;10.802;2022-12-29T15:03:36;10.20;99.90
11152;DHT22;5630;49.342;10.802;2022-12-29T15:06:13;10.20;99.90
11152;DHT22;5630;49.342;10.802;2022-12-29T15:08:53;10.20;99.90
11152;DHT22;5630;49.342;10.802;2022-12-29T15:11:22;10.10;99.90
11152;DHT22;5630;49.342;10.802;2022-12-29T15:13:49;10.10;99.90
11152;DHT22;5630;49.342;10.802;2022-12-29T15:16:29;10.10;99.90
11152;DHT22;5630;49.342;10.802;2022-12-29T15:18:55;10.10;99.90
11152;DHT22;5630;49.342;10.802;2022-12-29T15:21:35;10.00;99.90
11152;DHT22;5630;49.342;10.802;2022-12-29T15:24:02;10.00;99.90
11152;DHT22;5630;49.342;10.802;2022-12-29T15:26:45;9.90;99.90
11152;DHT22;5630;49.342;10.802;2022-12-29T15:29:40;10.00;99.90
11152;DHT22;5630;49.342;10.802;2022-12-29T15:34:42;9.90;99.90
11152;DHT22;5630;49.342;10.802;2022-12-29T15:37:08;9.90;99.90
11152;DHT22;5630;49.342;10.802;2022-12-29T15:39:34;10.00;99.90
11152;DHT22;5630;49.342;10.802;2022-12-29T15:44:54;9.90;99.90
11152;DHT22;5630;49.342;10.802;2022-12-29T15:47:25;9.90;99.90
11152;DHT22;5630;49.342;10.802;2022-12-29T15:50:02;9.80;99.90
11152;DHT22;5630;49.342;10.802;2022-12-29T15:52:29;9.80;99.90
11152;DHT22;5630;49.342;10.802;2022-12-29T15:54:57;9.80;99.90
11152;DHT22;5630;49.342;10.802;2022-12-29T15:57:29;9.80;99.90
11152;DHT22;5630;49.342;10.802;2022-12-29T15:59:58;9.80;99.90
11152;DHT22;5630;49.342;10.802;2022-12-29T16:02:26;9.80;99.90
11152;DHT22;5630;49.342;10.802;2022-12-29T16:04:52;9.70;99.90
11152;DHT22;5630;49.342;10.802;2022-12-29T16:07:29;9.70;99.90
11152;DHT22;5630;49.342;10.802;2022-12-29T16:09:57;9.70;99.90
11152;DHT22;5630;49.342;10.802;2022-12-29T16:12:41;9.70;99.90
11152;DHT22;5630;49.342;10.802;2022-12-29T16:15:12;9.70;99.90
11152;DHT22;5630;49.342;10.802;2022-12-29T16:17:47;9.70;99.90
11152;DHT22;5630;49.342;10.802;2022-12-29T16:20:19;9.70;99.90
11152;DHT22;5630;49.342;10.802;2022-12-29T16:22:52;9.70;99.90
11152;DHT22;5630;49.342;10.802;2022-12-29T16:25:23;9.70;99.90
11152;DHT22;5630;49.342;10.802;2022-12-29T16:27:49;9.70;99.90
11152;DHT22;5630;49.342;10.802;2022-12-29T16:30:25;9.70;99.90
11152;DHT22;5630;49.342;10.802;2022-12-29T16:32:54;9.70;99.90
11152;DHT22;5630;49.342;10.802;2022-12-29T16:35:21;9.70;99.90
11152;DHT22;5630;49.342;10.802;2022-12-29T16:37:48;9.70;99.90
11152;DHT22;5630;49.342;10.802;2022-12-29T16:40:22;9.60;99.90
11152;DHT22;5630;49.342;10.802;2022-12-29T16:42:49;9.60;99.90
11152;DHT22;5630;49.342;10.802;2022-12-29T16:47:45;9.70;99.90
11152;DHT22;5630;49.342;10.802;2022-12-29T16:50:15;9.70;99.90
11152;DHT22;5630;49.342;10.802;2022-12-29T16:52:42;9.60;99.90
11152;DHT22;5630;49.342;10.802;2022-12-29T16:55:15;9.60;99.90
11152;DHT22;5630;49.342;10.802;2022-12-29T16:57:43;9.60;99.90
11152;DHT22;5630;49.342;10.802;2022-12-29T17:00:21;9.60;99.90
11152;DHT22;5630;49.342;10.802;2022-12-29T17:02:49;9.60;99.90
11152;DHT22;5630;49.342;10.802;2022-12-29T17:05:17;9.60;99.90
11152;DHT22;5630;49.342;10.802;2022-12-29T17:07:43;9.60;99.90
11152;DHT22;5630;49.342;10.802;2022-12-29T17:10:09;9.60;99.90
11152;DHT22;5630;49.342;10.802;2022-12-29T17:12:36;9.60;99.90
11152;DHT22;5630;49.342;10.802;2022-12-29T17:15:14;9.60;99.90
11152;DHT22;5630;49.342;10.802;2022-12-29T17:17:45;9.60;99.90
11152;DHT22;5630;49.342;10.802;2022-12-29T17:20:25;9.60;99.90
11152;DHT22;5630;49.342;10.802;2022-12-29T17:22:53;9.30;99.90
11152;DHT22;5630;49.342;10.802;2022-12-29T17:25:34;9.20;99.90
11152;DHT22;5630;49.342;10.802;2022-12-29T17:28:04;9.20;99.90
11152;DHT22;5630;49.342;10.802;2022-12-29T17:30:33;9.10;99.90
11152;DHT22;5630;49.342;10.802;2022-12-29T17:33:14;9.10;99.90
11152;DHT22;5630;49.342;10.802;2022-12-29T17:35:41;9.20;99.90
11152;DHT22;5630;49.342;10.802;2022-12-29T17:38:17;9.10;99.90
11152;DHT22;5630;49.342;10.802;2022-12-29T17:40:43;9.00;99.90
11152;DHT22;5630;49.342;10.802;2022-12-29T17:43:12;9.00;99.90
11152;DHT22;5630;49.342;10.802;2022-12-29T17:45:39;9.00;99.90
11152;DHT22;5630;49.342;10.802;2022-12-29T17:48:16;9.00;99.90
11152;DHT22;5630;49.342;10.802;2022-12-29T17:50:42;9.00;99.90
11152;DHT22;5630;49.342;10.802;2022-12-29T17:53:22;8.90;99.90
11152;DHT22;5630;49.342;10.802;2022-12-29T17:55:48;8.90;99.90
11152;DHT22;5630;49.342;10.802;2022-12-29T17:58:17;8.80;99.90
11152;DHT22;5630;49.342;10.802;2022-12-29T18:00:44;8.90;99.90
11152;DHT22;5630;49.342;10.802;2022-12-29T18:03:15;8.80;99.90
11152;DHT22;5630;49.342;10.802;2022-12-29T18:05:41;8.80;99.90
11152;DHT22;5630;49.342;10.802;2022-12-29T18:08:09;8.80;99.90
11152;DHT22;5630;49.342;10.802;2022-12-29T18:10:35;8.80;99.90
11152;DHT22;5630;49.342;10.802;2022-12-29T18:13:01;8.80;99.90
11152;DHT22;5630;49.342;10.802;2022-12-29T18:15:34;8.80;99.90
11152;DHT22;5630;49.342;10.802;2022-12-29T18:18:15;8.80;99.90